sensor_id;sensor_type;location;lat;lon;timestamp;P1;durP1;ratioP1;P2;durP2;ratioP2
39128;SDS011;24864;49.940;19.770;2023-04-03T00:01:11;5.85;;;4.72;;
39128;SDS011;24864;49.940;19.770;2023-04-03T00:03:41;6.78;;;4.95;;
39128;SDS011;24864;49.940;19.770;2023-04-03T00:06:10;7.25;;;5.32;;
39128;SDS011;24864;49.940;19.770;2023-04-03T00:08:39;5.88;;;5.13;;
39128;SDS011;24864;49.940;19.770;2023-04-03T00:11:08;6.15;;;4.80;;
39128;SDS011;24864;49.940;19.770;2023-04-03T00:13:37;6.00;;;5.22;;
39128;SDS011;24864;49.940;19.770;2023-04-03T00:16:06;5.72;;;4.82;;
39128;SDS011;24864;49.940;19.770;2023-04-03T00:18:34;6.28;;;4.72;;
39128;SDS011;24864;49.940;19.770;2023-04-03T00:21:05;5.35;;;4.28;;
39128;SDS011;24864;49.940;19.770;2023-04-03T00:23:34;6.20;;;4.70;;
39128;SDS011;24864;49.940;19.770;2023-04-03T00:26:02;5.00;;;4.47;;
39128;SDS011;24864;49.940;19.770;2023-04-03T00:28:31;7.15;;;5.18;;
39128;SDS011;24864;49.940;19.770;2023-04-03T00:30:59;5.55;;;4.90;;
39128;SDS011;24864;49.940;19.770;2023-04-03T00:33:27;6.95;;;4.97;;
39128;SDS011;24864;49.940;19.770;2023-04-03T00:35:56;7.45;;;6.30;;
39128;SDS011;24864;49.940;19.770;2023-04-03T00:38:26;8.60;;;5.95;;
39128;SDS011;24864;49.940;19.770;2023-04-03T00:40:54;6.88;;;5.97;;
39128;SDS011;24864;49.940;19.770;2023-04-03T00:43:23;8.30;;;6.05;;
39128;SDS011;24864;49.940;19.770;2023-04-03T00:45:53;10.40;;;6.80;;
39128;SDS011;24864;49.940;19.770;2023-04-03T00:48:25;7.57;;;6.57;;
39128;SDS011;24864;49.940;19.770;2023-04-03T00:50:56;8.82;;;7.32;;
39128;SDS011;24864;49.940;19.770;2023-04-03T00:53:27;8.90;;;6.82;;
39128;SDS011;24864;49.940;19.770;2023-04-03T00:55:57;8.82;;;7.20;;
39128;SDS011;24864;49.940;19.770;2023-04-03T00:58:28;7.65;;;6.75;;
39128;SDS011;24864;49.940;19.770;2023-04-03T01:01:02;8.48;;;6.15;;
39128;SDS011;24864;49.940;19.770;2023-04-03T01:03:33;8.88;;;7.07;;
39128;SDS011;24864;49.940;19.770;2023-04-03T01:06:01;8.40;;;6.63;;
39128;SDS011;24864;49.940;19.770;2023-04-03T01:08:33;7.97;;;6.55;;
39128;SDS011;24864;49.940;19.770;2023-04-03T01:11:02;7.70;;;6.65;;
39128;SDS011;24864;49.940;19.770;2023-04-03T01:13:32;7.13;;;5.93;;
39128;SDS011;24864;49.940;19.770;2023-04-03T01:16:01;6.63;;;4.63;;
39128;SDS011;24864;49.940;19.770;2023-04-03T01:18:30;5.88;;;4.70;;
39128;SDS011;24864;49.940;19.770;2023-04-03T01:23:58;5.43;;;4.22;;
39128;SDS011;24864;49.940;19.770;2023-04-03T01:26:32;5.10;;;4.18;;
39128;SDS011;24864;49.940;19.770;2023-04-03T01:29:02;5.88;;;4.88;;
39128;SDS011;24864;49.940;19.770;2023-04-03T01:31:31;5.85;;;5.25;;
39128;SDS011;24864;49.940;19.770;2023-04-03T01:34:17;7.20;;;5.55;;
39128;SDS011;24864;49.940;19.770;2023-04-03T01:36:46;6.25;;;5.65;;
39128;SDS011;24864;49.940;19.770;2023-04-03T01:39:14;7.47;;;5.38;;
39128;SDS011;24864;49.940;19.770;2023-04-03T01:41:43;7.63;;;5.85;;
39128;SDS011;24864;49.940;19.770;2023-04-03T01:44:12;6.22;;;5.43;;
39128;SDS011;24864;49.940;19.770;2023-04-03T01:46:40;7.70;;;6.28;;
39128;SDS011;24864;49.940;19.770;2023-04-03T01:49:10;8.93;;;6.88;;
39128;SDS011;24864;49.940;19.770;2023-04-03T01:51:38;7.97;;;5.93;;
39128;SDS011;24864;49.940;19.770;2023-04-03T01:54:06;8.80;;;6.72;;
39128;SDS011;24864;49.940;19.770;2023-04-03T01:56:35;14.90;;;6.75;;
39128;SDS011;24864;49.940;19.770;2023-04-03T01:59:04;7.70;;;5.72;;
39128;SDS011;24864;49.940;19.770;2023-04-03T02:01:33;8.40;;;6.43;;
39128;SDS011;24864;49.940;19.770;2023-04-03T02:04:01;8.02;;;6.68;;
39128;SDS011;24864;49.940;19.770;2023-04-03T02:06:31;8.90;;;7.40;;
39128;SDS011;24864;49.940;19.770;2023-04-03T02:08:59;10.90;;;7.15;;
39128;SDS011;24864;49.940;19.770;2023-04-03T02:11:28;12.27;;;7.85;;
39128;SDS011;24864;49.940;19.770;2023-04-03T02:13:56;23.17;;;9.43;;
39128;SDS011;24864;49.940;19.770;2023-04-03T02:16:24;16.58;;;8.45;;
39128;SDS011;24864;49.940;19.770;2023-04-03T02:18:53;300.65;;;26.17;;
39128;SDS011;24864;49.940;19.770;2023-04-03T02:21:21;15.68;;;9.43;;
39128;SDS011;24864;49.940;19.770;2023-04-03T02:23:51;121.63;;;15.93;;
39128;SDS011;24864;49.940;19.770;2023-04-03T02:26:19;48.22;;;11.65;;
39128;SDS011;24864;49.940;19.770;2023-04-03T02:28:48;13.95;;;9.63;;
39128;SDS011;24864;49.940;19.770;2023-04-03T02:31:16;11.80;;;9.75;;
39128;SDS011;24864;49.940;19.770;2023-04-03T02:33:45;13.73;;;10.52;;
39128;SDS011;24864;49.940;19.770;2023-04-03T02:36:13;12.55;;;9.57;;
39128;SDS011;24864;49.940;19.770;2023-04-03T02:38:41;15.85;;;11.27;;
39128;SDS011;24864;49.940;19.770;2023-04-03T02:41:12;12.80;;;9.73;;
39128;SDS011;24864;49.940;19.770;2023-04-03T02:43:40;10.85;;;9.15;;
39128;SDS011;24864;49.940;19.770;2023-04-03T02:46:08;12.13;;;10.00;;
39128;SDS011;24864;49.940;19.770;2023-04-03T02:48:37;11.95;;;9.25;;
39128;SDS011;24864;49.940;19.770;2023-04-03T02:51:05;11.68;;;9.02;;
39128;SDS011;24864;49.940;19.770;2023-04-03T02:53:33;10.27;;;8.40;;
39128;SDS011;24864;49.940;19.770;2023-04-03T02:56:02;11.10;;;7.60;;
39128;SDS011;24864;49.940;19.770;2023-04-03T02:58:31;8.57;;;7.40;;
39128;SDS011;24864;49.940;19.770;2023-04-03T03:01:00;12.20;;;8.75;;
39128;SDS011;24864;49.940;19.770;2023-04-03T03:03:28;14.40;;;8.85;;
39128;SDS011;24864;49.940;19.770;2023-04-03T03:06:03;11.07;;;8.30;;
39128;SDS011;24864;49.940;19.770;2023-04-03T03:08:31;11.35;;;8.90;;
39128;SDS011;24864;49.940;19.770;2023-04-03T03:11:00;11.40;;;8.60;;
39128;SDS011;24864;49.940;19.770;2023-04-03T03:13:28;10.68;;;8.43;;
39128;SDS011;24864;49.940;19.770;2023-04-03T03:15:59;14.27;;;9.55;;
39128;SDS011;24864;49.940;19.770;2023-04-03T03:18:27;14.20;;;9.07;;
39128;SDS011;24864;49.940;19.770;2023-04-03T03:20:57;14.77;;;9.63;;
39128;SDS011;24864;49.940;19.770;2023-04-03T03:23:27;13.88;;;7.80;;
39128;SDS011;24864;49.940;19.770;2023-04-03T03:25:56;11.30;;;8.40;;
39128;SDS011;24864;49.940;19.770;2023-04-03T03:28:25;13.15;;;7.93;;
39128;SDS011;24864;49.940;19.770;2023-04-03T03:30:54;12.20;;;8.68;;
39128;SDS011;24864;49.940;19.770;2023-04-03T03:33:23;13.15;;;9.65;;
39128;SDS011;24864;49.940;19.770;2023-04-03T03:35:53;11.85;;;9.25;;
39128;SDS011;24864;49.940;19.770;2023-04-03T03:38:22;33.30;;;10.93;;
39128;SDS011;24864;49.940;19.770;2023-04-03T03:40:50;41.17;;;11.18;;
39128;SDS011;24864;49.940;19.770;2023-04-03T03:43:19;28.50;;;10.93;;
39128;SDS011;24864;49.940;19.770;2023-04-03T03:45:49;109.85;;;15.73;;
39128;SDS011;24864;49.940;19.770;2023-04-03T03:48:18;105.55;;;16.67;;
39128;SDS011;24864;49.940;19.770;2023-04-03T03:50:48;40.83;;;12.93;;
39128;SDS011;24864;49.940;19.770;2023-04-03T03:53:16;437.33;;;35.22;;
39128;SDS011;24864;49.940;19.770;2023-04-03T03:55:45;273.92;;;26.92;;
39128;SDS011;24864;49.940;19.770;2023-04-03T03:58:14;40.55;;;12.48;;
39128;SDS011;24864;49.940;19.770;2023-04-03T04:00:42;16.30;;;11.43;;
39128;SDS011;24864;49.940;19.770;2023-04-03T04:03:10;23.60;;;12.20;;
39128;SDS011;24864;49.940;19.770;2023-04-03T04:05:39;16.35;;;11.23;;
39128;SDS011;24864;49.940;19.770;2023-04-03T04:08:08;19.30;;;13.48;;
39128;SDS011;24864;49.940;19.770;2023-04-03T04:10:37;60.22;;;15.50;;
39128;SDS011;24864;49.940;19.770;2023-04-03T04:13:05;78.53;;;16.05;;
39128;SDS011;24864;49.940;19.770;2023-04-03T04:15:34;302.33;;;33.33;;
39128;SDS011;24864;49.940;19.770;2023-04-03T04:18:02;333.05;;;32.72;;
39128;SDS011;24864;49.940;19.770;2023-04-03T04:20:31;366.25;;;33.38;;
39128;SDS011;24864;49.940;19.770;2023-04-03T04:22:59;157.50;;;21.55;;
39128;SDS011;24864;49.940;19.770;2023-04-03T04:25:29;403.17;;;37.50;;
39128;SDS011;24864;49.940;19.770;2023-04-03T04:27:57;18.33;;;12.30;;
39128;SDS011;24864;49.940;19.770;2023-04-03T04:30:26;16.75;;;12.55;;
39128;SDS011;24864;49.940;19.770;2023-04-03T04:32:54;17.85;;;12.02;;
39128;SDS011;24864;49.940;19.770;2023-04-03T04:35:22;10.55;;;7.43;;
39128;SDS011;24864;49.940;19.770;2023-04-03T04:37:50;14.18;;;6.38;;
39128;SDS011;24864;49.940;19.770;2023-04-03T04:40:19;9.68;;;6.47;;
39128;SDS011;24864;49.940;19.770;2023-04-03T04:42:49;9.55;;;6.47;;
39128;SDS011;24864;49.940;19.770;2023-04-03T04:45:17;10.43;;;5.90;;
39128;SDS011;24864;49.940;19.770;2023-04-03T04:47:46;8.60;;;6.80;;
39128;SDS011;24864;49.940;19.770;2023-04-03T04:50:15;9.90;;;6.50;;
39128;SDS011;24864;49.940;19.770;2023-04-03T04:52:43;9.07;;;5.95;;
39128;SDS011;24864;49.940;19.770;2023-04-03T04:55:12;10.95;;;5.45;;
39128;SDS011;24864;49.940;19.770;2023-04-03T04:57:40;10.65;;;6.15;;
39128;SDS011;24864;49.940;19.770;2023-04-03T05:00:11;8.70;;;5.22;;
39128;SDS011;24864;49.940;19.770;2023-04-03T05:02:40;6.18;;;4.80;;
39128;SDS011;24864;49.940;19.770;2023-04-03T05:05:08;7.82;;;5.93;;
39128;SDS011;24864;49.940;19.770;2023-04-03T05:07:36;11.18;;;6.20;;
39128;SDS011;24864;49.940;19.770;2023-04-03T05:10:05;8.20;;;6.47;;
39128;SDS011;24864;49.940;19.770;2023-04-03T05:12:35;11.88;;;6.28;;
39128;SDS011;24864;49.940;19.770;2023-04-03T05:15:04;14.18;;;7.57;;
39128;SDS011;24864;49.940;19.770;2023-04-03T05:17:34;11.48;;;8.02;;
39128;SDS011;24864;49.940;19.770;2023-04-03T05:20:03;9.02;;;7.07;;
39128;SDS011;24864;49.940;19.770;2023-04-03T05:22:32;8.52;;;6.88;;
39128;SDS011;24864;49.940;19.770;2023-04-03T05:25:00;8.18;;;6.45;;
39128;SDS011;24864;49.940;19.770;2023-04-03T05:27:29;10.00;;;6.70;;
39128;SDS011;24864;49.940;19.770;2023-04-03T05:29:57;12.43;;;7.20;;
39128;SDS011;24864;49.940;19.770;2023-04-03T05:32:26;11.73;;;7.80;;
39128;SDS011;24864;49.940;19.770;2023-04-03T05:34:56;12.32;;;8.63;;
39128;SDS011;24864;49.940;19.770;2023-04-03T05:37:26;13.23;;;10.05;;
39128;SDS011;24864;49.940;19.770;2023-04-03T05:39:55;13.48;;;9.30;;
39128;SDS011;24864;49.940;19.770;2023-04-03T05:42:23;17.20;;;9.88;;
39128;SDS011;24864;49.940;19.770;2023-04-03T05:44:52;13.10;;;9.50;;
39128;SDS011;24864;49.940;19.770;2023-04-03T05:47:20;13.02;;;9.20;;
39128;SDS011;24864;49.940;19.770;2023-04-03T05:49:49;10.70;;;7.90;;
39128;SDS011;24864;49.940;19.770;2023-04-03T05:52:20;10.35;;;7.70;;
39128;SDS011;24864;49.940;19.770;2023-04-03T05:54:49;7.75;;;5.57;;
39128;SDS011;24864;49.940;19.770;2023-04-03T05:57:17;7.60;;;5.93;;
39128;SDS011;24864;49.940;19.770;2023-04-03T05:59:47;7.30;;;5.38;;
39128;SDS011;24864;49.940;19.770;2023-04-03T06:02:16;7.85;;;6.18;;
39128;SDS011;24864;49.940;19.770;2023-04-03T06:04:49;9.02;;;6.07;;
39128;SDS011;24864;49.940;19.770;2023-04-03T06:07:20;10.95;;;7.40;;
39128;SDS011;24864;49.940;19.770;2023-04-03T06:09:50;8.73;;;6.77;;
39128;SDS011;24864;49.940;19.770;2023-04-03T06:12:18;10.65;;;7.53;;
39128;SDS011;24864;49.940;19.770;2023-04-03T06:14:47;11.07;;;6.43;;
39128;SDS011;24864;49.940;19.770;2023-04-03T06:17:16;8.93;;;6.45;;
39128;SDS011;24864;49.940;19.770;2023-04-03T06:19:46;9.73;;;7.47;;
39128;SDS011;24864;49.940;19.770;2023-04-03T06:22:14;9.82;;;4.93;;
39128;SDS011;24864;49.940;19.770;2023-04-03T06:24:44;8.63;;;5.20;;
39128;SDS011;24864;49.940;19.770;2023-04-03T06:27:13;9.55;;;4.22;;
39128;SDS011;24864;49.940;19.770;2023-04-03T06:29:41;9.77;;;5.82;;
39128;SDS011;24864;49.940;19.770;2023-04-03T06:32:10;11.80;;;5.45;;
39128;SDS011;24864;49.940;19.770;2023-04-03T06:34:39;10.77;;;5.80;;
39128;SDS011;24864;49.940;19.770;2023-04-03T06:37:10;10.00;;;6.53;;
39128;SDS011;24864;49.940;19.770;2023-04-03T06:39:39;13.45;;;6.13;;
39128;SDS011;24864;49.940;19.770;2023-04-03T06:42:08;10.45;;;6.22;;
39128;SDS011;24864;49.940;19.770;2023-04-03T06:44:37;7.65;;;5.35;;
39128;SDS011;24864;49.940;19.770;2023-04-03T06:47:06;8.98;;;4.45;;
39128;SDS011;24864;49.940;19.770;2023-04-03T06:49:36;6.82;;;4.38;;
39128;SDS011;24864;49.940;19.770;2023-04-03T06:52:04;7.50;;;4.35;;
39128;SDS011;24864;49.940;19.770;2023-04-03T06:54:33;10.05;;;4.53;;
39128;SDS011;24864;49.940;19.770;2023-04-03T06:57:02;6.90;;;3.83;;
39128;SDS011;24864;49.940;19.770;2023-04-03T06:59:32;7.68;;;3.47;;
39128;SDS011;24864;49.940;19.770;2023-04-03T07:02:00;7.13;;;2.65;;
39128;SDS011;24864;49.940;19.770;2023-04-03T07:04:29;5.68;;;2.42;;
39128;SDS011;24864;49.940;19.770;2023-04-03T07:06:57;6.25;;;2.70;;
39128;SDS011;24864;49.940;19.770;2023-04-03T07:09:26;5.45;;;3.10;;
39128;SDS011;24864;49.940;19.770;2023-04-03T07:11:54;26.90;;;12.15;;
39128;SDS011;24864;49.940;19.770;2023-04-03T07:14:22;23.38;;;10.95;;
39128;SDS011;24864;49.940;19.770;2023-04-03T07:16:52;18.52;;;11.50;;
39128;SDS011;24864;49.940;19.770;2023-04-03T07:19:21;4.85;;;3.33;;
39128;SDS011;24864;49.940;19.770;2023-04-03T07:21:50;6.25;;;2.30;;
39128;SDS011;24864;49.940;19.770;2023-04-03T07:24:19;4.85;;;1.63;;
39128;SDS011;24864;49.940;19.770;2023-04-03T07:26:49;5.15;;;2.47;;
39128;SDS011;24864;49.940;19.770;2023-04-03T07:29:18;4.95;;;1.88;;
39128;SDS011;24864;49.940;19.770;2023-04-03T07:31:46;3.88;;;1.88;;
39128;SDS011;24864;49.940;19.770;2023-04-03T07:34:17;5.55;;;1.75;;
39128;SDS011;24864;49.940;19.770;2023-04-03T07:36:45;3.55;;;1.13;;
39128;SDS011;24864;49.940;19.770;2023-04-03T07:39:14;6.53;;;1.83;;
39128;SDS011;24864;49.940;19.770;2023-04-03T07:41:42;5.82;;;1.80;;
39128;SDS011;24864;49.940;19.770;2023-04-03T07:44:11;4.07;;;1.70;;
39128;SDS011;24864;49.940;19.770;2023-04-03T07:46:39;3.72;;;1.88;;
39128;SDS011;24864;49.940;19.770;2023-04-03T07:49:09;5.55;;;1.90;;
39128;SDS011;24864;49.940;19.770;2023-04-03T07:51:38;7.80;;;1.80;;
39128;SDS011;24864;49.940;19.770;2023-04-03T07:54:07;6.68;;;1.67;;
39128;SDS011;24864;49.940;19.770;2023-04-03T07:56:35;3.53;;;1.50;;
39128;SDS011;24864;49.940;19.770;2023-04-03T07:59:04;4.70;;;2.22;;
39128;SDS011;24864;49.940;19.770;2023-04-03T08:01:33;3.95;;;1.73;;
39128;SDS011;24864;49.940;19.770;2023-04-03T08:04:01;15.50;;;7.95;;
39128;SDS011;24864;49.940;19.770;2023-04-03T08:06:30;6.07;;;3.17;;
39128;SDS011;24864;49.940;19.770;2023-04-03T08:09:13;11.02;;;6.15;;
39128;SDS011;24864;49.940;19.770;2023-04-03T08:11:42;8.38;;;5.43;;
39128;SDS011;24864;49.940;19.770;2023-04-03T08:14:11;4.75;;;2.15;;
39128;SDS011;24864;49.940;19.770;2023-04-03T08:16:43;4.15;;;2.47;;
39128;SDS011;24864;49.940;19.770;2023-04-03T08:19:13;5.63;;;2.28;;
39128;SDS011;24864;49.940;19.770;2023-04-03T08:21:52;2.88;;;1.77;;
39128;SDS011;24864;49.940;19.770;2023-04-03T08:24:22;9.75;;;2.38;;
39128;SDS011;24864;49.940;19.770;2023-04-03T08:26:50;5.43;;;1.92;;
39128;SDS011;24864;49.940;19.770;2023-04-03T08:29:19;6.80;;;1.88;;
39128;SDS011;24864;49.940;19.770;2023-04-03T08:31:48;5.07;;;1.90;;
39128;SDS011;24864;49.940;19.770;2023-04-03T08:34:17;4.18;;;1.75;;
39128;SDS011;24864;49.940;19.770;2023-04-03T08:36:46;2.30;;;1.10;;
39128;SDS011;24864;49.940;19.770;2023-04-03T08:39:14;3.58;;;1.45;;
39128;SDS011;24864;49.940;19.770;2023-04-03T08:41:44;7.55;;;1.83;;
39128;SDS011;24864;49.940;19.770;2023-04-03T08:44:15;9.40;;;2.57;;
39128;SDS011;24864;49.940;19.770;2023-04-03T08:47:02;4.80;;;1.88;;
39128;SDS011;24864;49.940;19.770;2023-04-03T08:49:40;6.68;;;1.67;;
39128;SDS011;24864;49.940;19.770;2023-04-03T08:52:15;5.32;;;2.10;;
39128;SDS011;24864;49.940;19.770;2023-04-03T08:54:50;3.90;;;1.52;;
39128;SDS011;24864;49.940;19.770;2023-04-03T08:57:23;4.80;;;1.40;;
39128;SDS011;24864;49.940;19.770;2023-04-03T08:59:57;5.72;;;2.08;;
39128;SDS011;24864;49.940;19.770;2023-04-03T09:02:27;5.38;;;1.73;;
39128;SDS011;24864;49.940;19.770;2023-04-03T09:04:59;5.93;;;2.20;;
39128;SDS011;24864;49.940;19.770;2023-04-03T09:07:32;6.20;;;2.20;;
39128;SDS011;24864;49.940;19.770;2023-04-03T09:10:04;5.50;;;1.65;;
39128;SDS011;24864;49.940;19.770;2023-04-03T09:12:36;4.68;;;2.30;;
39128;SDS011;24864;49.940;19.770;2023-04-03T09:15:10;5.05;;;2.13;;
39128;SDS011;24864;49.940;19.770;2023-04-03T09:18:04;5.63;;;2.00;;
39128;SDS011;24864;49.940;19.770;2023-04-03T09:20:39;4.05;;;2.05;;
39128;SDS011;24864;49.940;19.770;2023-04-03T09:23:14;5.05;;;1.92;;
39128;SDS011;24864;49.940;19.770;2023-04-03T09:25:47;6.88;;;2.45;;
39128;SDS011;24864;49.940;19.770;2023-04-03T09:28:17;7.65;;;2.15;;
39128;SDS011;24864;49.940;19.770;2023-04-03T09:30:45;4.85;;;2.17;;
39128;SDS011;24864;49.940;19.770;2023-04-03T09:33:13;7.82;;;2.35;;
39128;SDS011;24864;49.940;19.770;2023-04-03T09:35:42;7.15;;;2.92;;
39128;SDS011;24864;49.940;19.770;2023-04-03T09:38:15;5.75;;;2.50;;
39128;SDS011;24864;49.940;19.770;2023-04-03T09:40:47;4.90;;;2.60;;
39128;SDS011;24864;49.940;19.770;2023-04-03T09:43:22;6.60;;;2.45;;
39128;SDS011;24864;49.940;19.770;2023-04-03T09:45:55;5.90;;;2.40;;
39128;SDS011;24864;49.940;19.770;2023-04-03T09:48:25;5.30;;;2.08;;
39128;SDS011;24864;49.940;19.770;2023-04-03T09:50:56;12.73;;;2.90;;
39128;SDS011;24864;49.940;19.770;2023-04-03T09:53:27;6.17;;;2.43;;
39128;SDS011;24864;49.940;19.770;2023-04-03T09:56:00;3.88;;;2.25;;
39128;SDS011;24864;49.940;19.770;2023-04-03T09:58:33;4.25;;;2.45;;
39128;SDS011;24864;49.940;19.770;2023-04-03T10:01:26;6.10;;;2.25;;
39128;SDS011;24864;49.940;19.770;2023-04-03T10:04:07;5.57;;;3.03;;
39128;SDS011;24864;49.940;19.770;2023-04-03T10:06:37;7.20;;;2.50;;
39128;SDS011;24864;49.940;19.770;2023-04-03T10:09:17;11.10;;;2.05;;
39128;SDS011;24864;49.940;19.770;2023-04-03T10:11:56;4.90;;;2.53;;
39128;SDS011;24864;49.940;19.770;2023-04-03T10:14:29;4.43;;;2.70;;
39128;SDS011;24864;49.940;19.770;2023-04-03T10:16:59;7.95;;;2.65;;
39128;SDS011;24864;49.940;19.770;2023-04-03T10:19:34;7.35;;;3.00;;
39128;SDS011;24864;49.940;19.770;2023-04-03T10:22:11;9.40;;;3.50;;
39128;SDS011;24864;49.940;19.770;2023-04-03T10:24:47;3.80;;;2.50;;
39128;SDS011;24864;49.940;19.770;2023-04-03T10:27:22;5.70;;;3.03;;
39128;SDS011;24864;49.940;19.770;2023-04-03T10:30:01;3.75;;;2.20;;
39128;SDS011;24864;49.940;19.770;2023-04-03T10:32:51;4.53;;;2.42;;
39128;SDS011;24864;49.940;19.770;2023-04-03T10:35:25;5.65;;;2.45;;
39128;SDS011;24864;49.940;19.770;2023-04-03T10:38:03;5.78;;;2.88;;
39128;SDS011;24864;49.940;19.770;2023-04-03T10:40:37;4.68;;;2.65;;
39128;SDS011;24864;49.940;19.770;2023-04-03T10:43:13;6.70;;;2.53;;
39128;SDS011;24864;49.940;19.770;2023-04-03T10:45:51;9.13;;;2.40;;
39128;SDS011;24864;49.940;19.770;2023-04-03T10:48:26;3.50;;;2.28;;
39128;SDS011;24864;49.940;19.770;2023-04-03T10:51:15;4.55;;;3.10;;
39128;SDS011;24864;49.940;19.770;2023-04-03T10:53:50;7.45;;;3.30;;
39128;SDS011;24864;49.940;19.770;2023-04-03T10:56:25;5.38;;;3.13;;
39128;SDS011;24864;49.940;19.770;2023-04-03T10:59:00;7.68;;;3.38;;
39128;SDS011;24864;49.940;19.770;2023-04-03T11:01:35;10.52;;;4.55;;
39128;SDS011;24864;49.940;19.770;2023-04-03T11:04:07;5.10;;;3.03;;
39128;SDS011;24864;49.940;19.770;2023-04-03T11:06:38;15.50;;;4.35;;
39128;SDS011;24864;49.940;19.770;2023-04-03T11:09:13;111.43;;;34.55;;
39128;SDS011;24864;49.940;19.770;2023-04-03T11:11:47;6.25;;;3.53;;
39128;SDS011;24864;49.940;19.770;2023-04-03T11:14:17;5.18;;;3.28;;
39128;SDS011;24864;49.940;19.770;2023-04-03T11:16:52;5.53;;;3.13;;
39128;SDS011;24864;49.940;19.770;2023-04-03T11:19:29;8.43;;;3.97;;
39128;SDS011;24864;49.940;19.770;2023-04-03T11:22:04;5.88;;;3.83;;
39128;SDS011;24864;49.940;19.770;2023-04-03T11:24:37;8.43;;;4.03;;
39128;SDS011;24864;49.940;19.770;2023-04-03T11:27:08;6.45;;;2.53;;
39128;SDS011;24864;49.940;19.770;2023-04-03T11:29:43;12.27;;;4.28;;
39128;SDS011;24864;49.940;19.770;2023-04-03T11:32:27;8.77;;;3.30;;
39128;SDS011;24864;49.940;19.770;2023-04-03T11:35:02;7.63;;;3.35;;
39128;SDS011;24864;49.940;19.770;2023-04-03T11:37:33;6.65;;;3.55;;
39128;SDS011;24864;49.940;19.770;2023-04-03T11:40:04;5.32;;;2.80;;
39128;SDS011;24864;49.940;19.770;2023-04-03T11:42:36;9.20;;;2.88;;
39128;SDS011;24864;49.940;19.770;2023-04-03T11:45:15;9.15;;;4.82;;
39128;SDS011;24864;49.940;19.770;2023-04-03T11:47:47;7.00;;;3.20;;
39128;SDS011;24864;49.940;19.770;2023-04-03T11:53:01;8.13;;;3.08;;
39128;SDS011;24864;49.940;19.770;2023-04-03T11:58:26;16.60;;;6.07;;
39128;SDS011;24864;49.940;19.770;2023-04-03T12:01:00;6.78;;;2.67;;
39128;SDS011;24864;49.940;19.770;2023-04-03T12:06:47;6.57;;;2.70;;
39128;SDS011;24864;49.940;19.770;2023-04-03T12:12:57;4.97;;;2.20;;
39128;SDS011;24864;49.940;19.770;2023-04-03T12:21:22;8.95;;;3.15;;
39128;SDS011;24864;49.940;19.770;2023-04-03T12:24:00;6.85;;;2.55;;
39128;SDS011;24864;49.940;19.770;2023-04-03T12:26:32;6.90;;;2.88;;
39128;SDS011;24864;49.940;19.770;2023-04-03T12:29:17;7.25;;;2.78;;
39128;SDS011;24864;49.940;19.770;2023-04-03T12:31:52;5.38;;;2.40;;
39128;SDS011;24864;49.940;19.770;2023-04-03T12:34:38;6.15;;;3.00;;
39128;SDS011;24864;49.940;19.770;2023-04-03T12:37:26;8.15;;;2.53;;
39128;SDS011;24864;49.940;19.770;2023-04-03T12:40:17;14.02;;;2.67;;
39128;SDS011;24864;49.940;19.770;2023-04-03T12:43:02;6.72;;;2.30;;
39128;SDS011;24864;49.940;19.770;2023-04-03T12:45:40;3.88;;;1.55;;
39128;SDS011;24864;49.940;19.770;2023-04-03T12:48:12;4.85;;;1.70;;
39128;SDS011;24864;49.940;19.770;2023-04-03T12:50:43;4.72;;;1.95;;
39128;SDS011;24864;49.940;19.770;2023-04-03T12:53:13;3.95;;;1.50;;
39128;SDS011;24864;49.940;19.770;2023-04-03T12:55:46;5.72;;;3.35;;
39128;SDS011;24864;49.940;19.770;2023-04-03T12:58:16;7.53;;;3.58;;
39128;SDS011;24864;49.940;19.770;2023-04-03T13:00:45;3.20;;;2.25;;
39128;SDS011;24864;49.940;19.770;2023-04-03T13:03:20;7.60;;;4.35;;
39128;SDS011;24864;49.940;19.770;2023-04-03T13:05:50;4.28;;;2.22;;
39128;SDS011;24864;49.940;19.770;2023-04-03T13:08:27;9.85;;;4.88;;
39128;SDS011;24864;49.940;19.770;2023-04-03T13:10:58;4.32;;;2.47;;
39128;SDS011;24864;49.940;19.770;2023-04-03T13:15:57;4.07;;;2.40;;
39128;SDS011;24864;49.940;19.770;2023-04-03T13:18:28;5.97;;;1.85;;
39128;SDS011;24864;49.940;19.770;2023-04-03T13:21:01;5.20;;;2.17;;
39128;SDS011;24864;49.940;19.770;2023-04-03T13:23:31;5.43;;;1.55;;
39128;SDS011;24864;49.940;19.770;2023-04-03T13:26:02;6.47;;;2.03;;
39128;SDS011;24864;49.940;19.770;2023-04-03T13:28:31;7.50;;;1.30;;
39128;SDS011;24864;49.940;19.770;2023-04-03T13:31:02;6.72;;;2.00;;
39128;SDS011;24864;49.940;19.770;2023-04-03T13:33:34;4.32;;;2.25;;
39128;SDS011;24864;49.940;19.770;2023-04-03T13:36:06;6.32;;;2.55;;
39128;SDS011;24864;49.940;19.770;2023-04-03T13:38:38;4.32;;;2.03;;
39128;SDS011;24864;49.940;19.770;2023-04-03T13:41:23;6.55;;;2.28;;
39128;SDS011;24864;49.940;19.770;2023-04-03T13:43:52;6.93;;;2.60;;
39128;SDS011;24864;49.940;19.770;2023-04-03T13:46:37;5.70;;;1.75;;
39128;SDS011;24864;49.940;19.770;2023-04-03T13:49:16;3.85;;;1.70;;
39128;SDS011;24864;49.940;19.770;2023-04-03T13:51:47;2.85;;;1.50;;
39128;SDS011;24864;49.940;19.770;2023-04-03T13:54:30;5.40;;;1.80;;
39128;SDS011;24864;49.940;19.770;2023-04-03T13:57:02;3.97;;;1.60;;
39128;SDS011;24864;49.940;19.770;2023-04-03T13:59:37;5.20;;;2.10;;
39128;SDS011;24864;49.940;19.770;2023-04-03T14:02:11;2.63;;;1.40;;
39128;SDS011;24864;49.940;19.770;2023-04-03T14:04:49;4.10;;;1.65;;
39128;SDS011;24864;49.940;19.770;2023-04-03T14:07:23;8.85;;;2.80;;
39128;SDS011;24864;49.940;19.770;2023-04-03T14:09:51;4.95;;;2.80;;
39128;SDS011;24864;49.940;19.770;2023-04-03T14:12:24;4.00;;;2.10;;
39128;SDS011;24864;49.940;19.770;2023-04-03T14:14:57;4.57;;;2.20;;
39128;SDS011;24864;49.940;19.770;2023-04-03T14:17:26;7.20;;;2.20;;
39128;SDS011;24864;49.940;19.770;2023-04-03T14:19:55;35.85;;;14.27;;
39128;SDS011;24864;49.940;19.770;2023-04-03T14:22:29;10.98;;;2.83;;
39128;SDS011;24864;49.940;19.770;2023-04-03T14:24:59;5.40;;;2.45;;
39128;SDS011;24864;49.940;19.770;2023-04-03T14:27:33;7.32;;;3.25;;
39128;SDS011;24864;49.940;19.770;2023-04-03T14:30:03;15.70;;;6.35;;
39128;SDS011;24864;49.940;19.770;2023-04-03T14:32:33;48.63;;;15.52;;
39128;SDS011;24864;49.940;19.770;2023-04-03T14:35:02;7.50;;;3.00;;
39128;SDS011;24864;49.940;19.770;2023-04-03T14:37:31;8.23;;;4.32;;
39128;SDS011;24864;49.940;19.770;2023-04-03T14:40:00;32.95;;;12.23;;
39128;SDS011;24864;49.940;19.770;2023-04-03T14:42:33;19.45;;;9.60;;
39128;SDS011;24864;49.940;19.770;2023-04-03T14:45:04;52.70;;;18.67;;
39128;SDS011;24864;49.940;19.770;2023-04-03T14:47:35;7.18;;;2.30;;
39128;SDS011;24864;49.940;19.770;2023-04-03T14:50:07;18.23;;;6.90;;
39128;SDS011;24864;49.940;19.770;2023-04-03T14:55:08;28.35;;;8.90;;
39128;SDS011;24864;49.940;19.770;2023-04-03T14:57:38;46.67;;;14.57;;
39128;SDS011;24864;49.940;19.770;2023-04-03T15:00:07;8.32;;;3.92;;
39128;SDS011;24864;49.940;19.770;2023-04-03T15:02:40;11.63;;;4.72;;
39128;SDS011;24864;49.940;19.770;2023-04-03T15:05:09;11.07;;;5.82;;
39128;SDS011;24864;49.940;19.770;2023-04-03T15:07:39;32.58;;;13.07;;
39128;SDS011;24864;49.940;19.770;2023-04-03T15:10:14;14.65;;;3.85;;
39128;SDS011;24864;49.940;19.770;2023-04-03T15:12:46;9.38;;;3.63;;
39128;SDS011;24864;49.940;19.770;2023-04-03T15:15:16;10.85;;;4.30;;
39128;SDS011;24864;49.940;19.770;2023-04-03T15:17:47;6.78;;;2.50;;